ADDS METAR Data INFO
IDs: Format: Raw Decoded Include TAF

Data at: 0512 UTC 22 Jul 2017

KHRX 220455Z AUTO 23010KT 10SM CLR 27/16 A3007 RMK AO2 T02690155
KHRX 220435Z AUTO 22009KT 10SM CLR 28/15 A3007 RMK AO2 T02750152
KHRX 220415Z AUTO 22013G18KT 10SM CLR 28/14 A3006 RMK AO2 T02810144
KHRX 220355Z AUTO 20016G22KT 10SM CLR 28/13 A3006 RMK AO2 T02830127
KHRX 220335Z AUTO 18007KT 10SM CLR 27/12 A3005 RMK AO2 T02710122
KHRX 220315Z AUTO 17007KT 10SM CLR 28/12 A3004 RMK AO2 T02830120
KHRX 220255Z AUTO 17009KT 10SM CLR 29/12 A3003 RMK AO2 T02910117
KHRX 220235Z AUTO 17009KT 10SM CLR 30/12 A3002 RMK AO2 LTG DSNT W T02950117
KHRX 220215Z AUTO 16008KT 10SM CLR 30/11 A3001 RMK AO2 T03020114
KHRX 220155Z AUTO 17008KT 10SM CLR 31/11 A3001 RMK AO2 T03110106
KHRX 220135Z AUTO 17009KT 10SM CLR 32/10 A3001 RMK AO2 T03230102
KHRX 220115Z AUTO 17010KT 10SM CLR 33/10 A3000 RMK AO2 T03300104
KHRX 220055Z AUTO 16012G19KT 10SM CLR 34/10 A3000 RMK AO2 T03360104
KHRX 220035Z AUTO 18014G17KT 10SM CLR 34/10 A3000 RMK AO2 T03420103
KHRX 220015Z AUTO 16014G19KT 10SM CLR 35/10 A3000 RMK AO2 LTG DSNT W T03470100
KHRX 212355Z AUTO 19014G17KT 10SM CLR 35/10 A3000 RMK AO2 T03500095 10366 20337
KHRX 212335Z AUTO 18012G19KT 10SM CLR 35/10 A3001 RMK AO2 T03540097
KHRX 212315Z AUTO 19016KT 10SM CLR 36/09 A3001 RMK AO2 T03600094
KHRX 212255Z AUTO 17012G22KT 10SM SCT095 36/10 A3002 RMK AO2 T03560099
KHRX 212235Z AUTO 19013G21KT 10SM SCT095 35/10 A3002 RMK AO2 T03530096
KHRX 212215Z AUTO 17013G34KT 10SM SCT095 36/10 A3003 RMK AO2 T03630096
KHRX 212155Z AUTO 20014G18KT 10SM SCT095 36/09 A3004 RMK AO2 T03630089
KHRX 212135Z AUTO 19012G20KT 10SM SCT095 36/09 A3004 RMK AO2 T03610088
KHRX 212115Z AUTO 22006G18KT 10SM CLR 35/09 A3004 RMK AO2 T03470088
KHRX 212055Z AUTO 17010G21KT 10SM CLR 36/09 A3005 RMK AO2 T03600088
KHRX 212035Z AUTO 19016G21KT 10SM SCT095 35/10 A3006 RMK AO2 T03490096
KHRX 212015Z AUTO 19016G20KT 10SM SCT090 35/09 A3007 RMK AO2 T03450091
KHRX 211955Z AUTO 19016G22KT 10SM SCT090 36/09 A3008 RMK AO2 T03570090
KHRX 211935Z AUTO 22012G20KT 170V230 10SM SCT085 36/10 A3008 RMK AO2 T03610101
KHRX 211915Z AUTO 19016G21KT 10SM CLR 35/11 A3009 RMK AO2 T03480110
KHRX 211855Z AUTO 19013G21KT 10SM CLR 35/10 A3009 RMK AO2 T03510097
KHRX 211835Z AUTO 19014G22KT 10SM CLR 35/11 A3010 RMK AO2 T03490109
KHRX 211815Z AUTO 20013G19KT 10SM CLR 34/11 A3011 RMK AO2 T03410106
KHRX 211755Z AUTO 21015G18KT 10SM CLR 34/12 A3012 RMK AO2 T03400119 10340 20199
KHRX 211735Z AUTO 22012G18KT 10SM CLR 33/12 A3013 RMK AO2 T03300122
KHRX 211715Z AUTO 24013G19KT 10SM CLR 33/13 A3013 RMK AO2 T03250133
KHRX 211655Z AUTO 22011G19KT 10SM CLR 32/13 A3013 RMK AO2 T03180130
KHRX 211635Z AUTO 22012KT 10SM CLR 32/14 A3013 RMK AO2 T03150136
KHRX 211615Z AUTO 24014G17KT 10SM CLR 31/14 A3014 RMK AO2 T03110143
KHRX 211555Z AUTO 23011G18KT 10SM CLR 31/15 A3014 RMK AO2 T03060145
KHRX 211535Z AUTO 24014G18KT 10SM CLR 30/15 A3014 RMK AO2 T03020146
KHRX 211515Z AUTO 22013G18KT 10SM CLR 30/15 A3014 RMK AO2 T02960147
KHRX 211455Z AUTO 25011KT 10SM CLR 29/15 A3014 RMK AO2 T02910149
KHRX 211435Z AUTO 24011KT 10SM CLR 28/15 A3015 RMK AO2 T02800146
KHRX 211415Z AUTO 23013KT 10SM CLR 28/14 A3015 RMK AO2 T02750142
KHRX 211355Z AUTO 24010KT 10SM CLR 27/14 A3015 RMK AO2 T02670140
KHRX 211335Z AUTO 24009KT 10SM CLR 26/14 A3014 RMK AO2 T02560136
KHRX 211315Z AUTO 25006KT 7SM CLR 24/14 A3014 RMK AO2 T02400135
KHRX 211255Z AUTO 00000KT 7SM CLR 22/14 A3014 RMK AO2 T02220135
KHRX 211235Z AUTO 23004KT 10SM CLR 21/14 A3014 RMK AO2 T02090135
KHRX 211215Z AUTO 23004KT 7SM CLR 20/13 A3013 RMK AO2 T02020133
KHRX 211155Z AUTO 22004KT 10SM CLR 21/13 A3013 RMK AO2 T02050133 10256 20200
KHRX 211135Z AUTO 21004KT 10SM CLR 21/13 A3013 RMK AO2 T02060132
KHRX 211115Z AUTO 22006KT 10SM CLR 21/13 A3012 RMK AO2 T02130132
KHRX 211055Z AUTO 23005KT 10SM CLR 22/13 A3012 RMK AO2 T02200132
KHRX 211035Z AUTO 24008KT 10SM CLR 22/13 A3012 RMK AO2 T02200131
KHRX 211015Z AUTO 25008KT 10SM CLR 22/13 A3011 RMK AO2 T02200133
KHRX 210955Z AUTO 22009KT 10SM CLR 23/13 A3010 RMK AO2 T02300131
KHRX 210935Z AUTO 23009KT 10SM CLR 23/13 A3010 RMK AO2 T02310132
KHRX 210915Z AUTO 24010KT 10SM CLR 24/13 A3010 RMK AO2 T02350133
KHRX 210855Z AUTO 23008KT 10SM CLR 23/14 A3011 RMK AO2 T02300135
KHRX 210835Z AUTO 23009KT 10SM CLR 23/14 A3011 RMK AO2 T02330135
KHRX 210815Z AUTO 22009KT 10SM CLR 24/14 A3011 RMK AO2 T02370135
KHRX 210755Z AUTO 21009KT 10SM CLR 24/13 A3011 RMK AO2 T02420133
KHRX 210735Z AUTO 21008KT 10SM CLR 25/13 A3012 RMK AO2 T02450132
KHRX 210715Z AUTO 21008KT 10SM CLR 24/13 A3012 RMK AO2 T02400133
KHRX 210655Z AUTO 21006KT 10SM CLR 24/13 A3012 RMK AO2 T02420131
KHRX 210635Z AUTO 21006KT 10SM CLR 24/13 A3012 RMK AO2 T02430130
KHRX 210615Z AUTO 21008KT 10SM CLR 25/13 A3013 RMK AO2 T02510127
KHRX 210555Z AUTO 20007KT 10SM CLR 26/13 A3013 RMK AO2 T02570126 10353 20239 403620196
KHRX 210535Z AUTO 19006KT 10SM CLR 24/13 A3012 RMK AO2 T02400127
KHRX 210515Z AUTO 19005KT 10SM CLR 24/13 A3013 RMK AO2 T02400126
KHRX 210455Z AUTO 19005KT 10SM CLR 25/13 A3012 RMK AO2 T02460130
KHRX 210435Z AUTO 18006KT 10SM CLR 25/13 A3012 RMK AO2 T02540128
KHRX 210415Z AUTO 18006KT 10SM CLR 26/13 A3012 RMK AO2 T02610127
KHRX 210355Z AUTO 17008KT 10SM CLR 27/13 A3012 RMK AO2 T02700125
KHRX 210335Z AUTO 18009KT 10SM CLR 27/12 A3011 RMK AO2 T02730123
KHRX 210315Z AUTO 17010KT 10SM CLR 28/12 A3010 RMK AO2 T02830118
KHRX 210255Z AUTO 17009KT 10SM CLR 28/12 A3009 RMK AO2 T02830119
KHRX 210235Z AUTO 17008KT 10SM CLR 30/12 A3009 RMK AO2 T02970117
KHRX 210215Z AUTO 17010KT 10SM CLR 30/12 A3009 RMK AO2 T03040117
KHRX 210155Z AUTO 17008KT 10SM CLR 31/12 A3008 RMK AO2 T03120115
KHRX 210135Z AUTO 17010KT 10SM CLR 32/11 A3008 RMK AO2 T03220110
KHRX 210115Z AUTO 18012KT 10SM CLR 33/10 A3007 RMK AO2 T03320103
KHRX 210055Z AUTO 18013G16KT 10SM CLR 34/10 A3007 RMK AO2 T03400102
KHRX 210035Z AUTO 19011KT 10SM CLR 35/10 A3007 RMK AO2 T03460101
KHRX 210015Z AUTO 18013G17KT 10SM CLR 35/10 A3006 RMK AO2 T03490100
KHRX 202355Z AUTO 17009G17KT 10SM CLR 35/10 A3007 RMK AO2 T03520101 10362 20331
KHRX 202335Z AUTO 20013G16KT 10SM CLR 36/10 A3007 RMK AO2 T03550101
KHRX 202315Z AUTO 20011G18KT 10SM CLR 36/09 A3008 RMK AO2 T03560094
KHRX 202255Z AUTO 18015G21KT 10SM CLR 36/10 A3009 RMK AO2 T03610097
KHRX 202235Z AUTO 21011KT 10SM CLR 36/10 A3010 RMK AO2 T03610104
KHRX 202215Z AUTO 21010G18KT 180V240 10SM CLR 36/10 A3010 RMK AO2 T03580099
KHRX 202155Z AUTO 24013G18KT 10SM CLR 36/10 A3011 RMK AO2 T03610097
KHRX 202135Z AUTO 23011G19KT 10SM CLR 36/10 A3013 RMK AO2 T03590098
KHRX 202115Z AUTO 24003G18KT 10SM CLR 35/10 A3013 RMK AO2 T03540102
KHRX 202055Z AUTO 23005G17KT 10SM CLR 36/10 A3014 RMK AO2 T03570101
KHRX 202035Z AUTO 24013G19KT 10SM SCT085 35/11 A3015 RMK AO2 T03510107
KHRX 202015Z AUTO 21017G23KT 10SM CLR 35/11 A3015 RMK AO2 T03530109
KHRX 201955Z AUTO 20013G21KT 10SM CLR 35/11 A3016 RMK AO2 T03470109
KHRX 201935Z AUTO 21016G21KT 10SM CLR 35/12 A3017 RMK AO2 T03460122
KHRX 201915Z AUTO 20016G22KT 10SM SCT070 SCT080 35/13 A3017 RMK AO2 T03450129
KHRX 201855Z AUTO 21015G22KT 10SM CLR 34/14 A3018 RMK AO2 T03410136
KHRX 201835Z AUTO 21016G24KT 10SM CLR 34/14 A3019 RMK AO2 T03390135
KHRX 201815Z AUTO 20014G22KT 10SM CLR 33/13 A3019 RMK AO2 T03340127
KHRX 201755Z AUTO 19017G20KT 10SM CLR 33/13 A3020 RMK AO2 T03320130 10332 20196
KHRX 201735Z AUTO 23013G19KT 10SM CLR 33/13 A3021 RMK AO2 T03250132
KHRX 201715Z AUTO 22012G20KT 10SM CLR 32/14 A3022 RMK AO2 T03200139